Time;durP1;ratioP1;P1;durP2;ratioP2;P2;SDS_P1;SDS_P2;PMS_P1;PMS_P2;Temp;Humidity;BMP_temperature;BMP_pressure;BME280_temperature;BME280_humidity;BME280_pressure;Samples;Min_cycle;Max_cycle;Signal;HPM_P1;HPM_P2
2024/02/09 00:00:35;;;;;;;1.00;0.80;;;21.50;68.20;;;;;;4970277;28;20488;-63
2024/02/09 00:03:06;;;;;;;1.20;0.90;;;21.60;70.20;;;;;;4971778;28;20546;-64
2024/02/09 00:05:33;;;;;;;1.00;0.80;;;21.60;68.30;;;;;;4971176;28;20958;-64
2024/02/09 00:08:04;;;;;;;0.90;0.70;;;21.50;71.50;;;;;;4969698;28;20466;-64
2024/02/09 00:10:37;;;;;;;0.93;0.70;;;21.50;67.90;;;;;;4972699;28;20598;-64
2024/02/09 00:13:14;;;;;;;0.90;0.70;;;21.50;69.60;;;;;;4971939;28;21333;-63
2024/02/09 00:15:45;;;;;;;1.00;0.73;;;21.50;68.20;;;;;;4972268;28;20815;-63
2024/02/09 00:18:16;;;;;;;0.90;0.70;;;21.90;69.30;;;;;;4969656;28;20522;-64
2024/02/09 00:20:43;;;;;;;0.90;0.77;;;22.00;70.70;;;;;;4965493;28;20466;-62
2024/02/09 00:23:10;;;;;;;1.10;0.80;;;21.50;68.50;;;;;;4971043;28;20467;-64
2024/02/09 00:25:39;;;;;;;1.00;0.80;;;21.40;70.50;;;;;;4968758;28;20464;-63
2024/02/09 00:28:13;;;;;;;1.23;0.70;;;21.40;69.20;;;;;;4971580;28;20915;-63
2024/02/09 00:30:42;;;;;;;0.85;0.60;;;21.30;70.70;;;;;;4969016;28;20456;-65
2024/02/09 00:33:11;;;;;;;0.90;0.70;;;21.50;68.70;;;;;;4972431;28;20855;-63
2024/02/09 00:35:39;;;;;;;0.90;0.70;;;21.40;70.30;;;;;;4971461;28;20938;-64
2024/02/09 00:38:09;;;;;;;1.20;1.00;;;21.40;69.20;;;;;;4957479;28;20464;-64
2024/02/09 00:40:44;;;;;;;1.00;0.80;;;21.40;70.60;;;;;;4968825;28;20247;-64
2024/02/09 00:43:15;;;;;;;0.90;0.70;;;21.40;70.40;;;;;;4960244;28;20468;-63
2024/02/09 00:45:41;;;;;;;1.30;0.70;;;21.30;68.60;;;;;;4970368;28;20208;-64
2024/02/09 00:48:11;;;;;;;0.90;0.70;;;21.40;70.00;;;;;;4970404;28;20762;-64
2024/02/09 00:50:40;;;;;;;0.90;0.77;;;21.40;68.50;;;;;;4972626;28;20483;-63
2024/02/09 00:53:10;;;;;;;0.95;0.77;;;21.40;70.00;;;;;;4966548;28;21137;-64
2024/02/09 00:55:38;;;;;;;1.45;0.82;;;21.20;69.50;;;;;;4970546;28;20702;-63
2024/02/09 00:58:12;;;;;;;1.10;0.80;;;21.90;70.60;;;;;;4968612;28;20206;-64
2024/02/09 01:00:42;;;;;;;0.90;0.70;;;21.40;69.70;;;;;;4968939;28;20465;-63
2024/02/09 01:03:11;;;;;;;0.90;0.70;;;21.30;69.60;;;;;;4966793;28;21244;-63
2024/02/09 01:05:38;;;;;;;1.00;0.70;;;21.20;68.70;;;;;;4968849;28;20201;-65
2024/02/09 01:08:05;;;;;;;0.90;0.70;;;21.30;69.20;;;;;;4967402;28;20197;-64
2024/02/09 01:10:32;;;;;;;1.00;0.70;;;21.30;68.50;;;;;;4955297;28;20547;-64
2024/02/09 02:46:41;;;;;;;0.90;0.67;;;21.20;67.50;;;;;;4963398;28;20194;-64
2024/02/09 03:05:52;;;;;;;1.55;0.80;;;21.10;67.40;;;;;;4961294;28;20787;-62
2024/02/09 03:08:20;;;;;;;0.90;0.70;;;21.20;66.80;;;;;;4969040;28;20197;-63
2024/02/09 03:10:48;;;;;;;0.90;0.70;;;21.20;66.80;;;;;;4968237;28;20201;-65
2024/02/09 03:13:18;;;;;;;1.00;0.80;;;20.90;66.40;;;;;;4965950;28;20229;-64
2024/02/09 03:15:45;;;;;;;1.00;0.60;;;21.10;66.70;;;;;;4965024;28;21015;-64
2024/02/09 03:18:17;;;;;;;0.90;0.70;;;21.10;66.80;;;;;;4965518;28;20202;-64
2024/02/09 03:20:44;;;;;;;0.90;0.70;;;21.10;66.80;;;;;;4969811;28;20467;-63
2024/02/09 03:23:12;;;;;;;1.00;0.77;;;21.10;66.90;;;;;;4970122;28;20212;-64
2024/02/09 03:25:44;;;;;;;1.00;0.80;;;21.10;66.80;;;;;;4960441;28;20599;-65
2024/02/09 03:28:16;;;;;;;0.90;0.60;;;21.10;67.00;;;;;;4969547;28;20202;-63
2024/02/09 03:30:43;;;;;;;1.00;0.82;;;21.10;66.80;;;;;;4965724;28;20226;-64
2024/02/09 03:33:11;;;;;;;1.00;0.70;;;21.10;67.10;;;;;;4971362;28;20209;-63
2024/02/09 03:35:42;;;;;;;0.82;0.60;;;21.00;67.10;;;;;;4968823;28;20348;-63
2024/02/09 03:38:13;;;;;;;1.05;0.93;;;21.30;67.70;;;;;;4970594;28;20201;-62
2024/02/09 03:40:44;;;;;;;0.87;0.60;;;21.10;67.20;;;;;;4975984;28;20257;-64
2024/02/09 03:43:19;;;;;;;0.90;0.70;;;21.10;67.30;;;;;;4974416;28;20460;-64
2024/02/09 03:45:48;;;;;;;1.00;0.70;;;20.60;66.90;;;;;;4962889;28;20347;-64
2024/02/09 03:48:14;;;;;;;1.10;0.70;;;21.10;67.80;;;;;;4973085;28;21588;-64
2024/02/09 03:50:42;;;;;;;1.00;0.70;;;20.90;68.00;;;;;;4970995;28;20466;-64
2024/02/09 03:53:12;;;;;;;0.90;0.60;;;21.70;72.50;;;;;;4971724;28;21442;-64
2024/02/09 03:55:46;;;;;;;0.90;0.70;;;21.10;69.80;;;;;;4972038;28;20344;-64
2024/02/09 03:58:17;;;;;;;0.90;0.70;;;21.10;69.50;;;;;;4974955;28;20471;-64
2024/02/09 04:00:48;;;;;;;0.90;0.75;;;21.10;70.10;;;;;;4968899;28;20185;-63
2024/02/09 04:03:15;;;;;;;1.00;0.80;;;21.00;69.20;;;;;;4968429;28;20365;-64
2024/02/09 04:05:46;;;;;;;1.00;0.80;;;21.00;69.20;;;;;;4964382;28;20511;-63
2024/02/09 04:08:21;;;;;;;0.80;0.60;;;21.00;69.80;;;;;;4973502;28;20204;-64
2024/02/09 04:10:48;;;;;;;1.25;0.70;;;21.10;69.80;;;;;;4972972;28;20355;-64
2024/02/09 04:13:17;;;;;;;0.90;0.70;;;21.00;70.30;;;;;;4973157;28;20482;-63
2024/02/09 04:15:44;;;;;;;1.38;0.80;;;21.10;69.60;;;;;;4972339;28;20486;-64
2024/02/09 04:18:10;;;;;;;0.90;0.70;;;21.50;70.20;;;;;;4971008;28;20209;-61
2024/02/09 04:20:38;;;;;;;0.90;0.70;;;21.10;68.30;;;;;;4964929;28;20471;-65
2024/02/09 04:23:10;;;;;;;1.10;0.70;;;21.00;68.40;;;;;;4975232;28;20193;-64
2024/02/09 04:25:37;;;;;;;0.93;0.70;;;21.00;70.60;;;;;;4974178;28;20205;-64
2024/02/09 04:28:09;;;;;;;0.90;0.60;;;21.10;67.10;;;;;;4971710;28;20657;-64
2024/02/09 04:30:41;;;;;;;0.90;0.70;;;21.50;67.50;;;;;;4969623;28;20204;-63
2024/02/09 04:33:10;;;;;;;0.90;0.60;;;21.00;67.10;;;;;;4963052;28;20255;-64
2024/02/09 04:35:38;;;;;;;0.90;0.70;;;21.00;67.30;;;;;;4972929;28;20227;-64
2024/02/09 04:38:06;;;;;;;0.97;0.70;;;21.10;67.90;;;;;;4969028;28;20329;-63
2024/02/09 04:40:37;;;;;;;1.10;0.73;;;20.90;67.80;;;;;;4972777;28;20467;-64
2024/02/09 04:43:05;;;;;;;1.00;0.85;;;21.00;68.30;;;;;;4970590;28;20464;-64
2024/02/09 04:45:32;;;;;;;0.93;0.70;;;21.10;69.10;;;;;;4972714;28;20215;-65
2024/02/09 04:48:02;;;;;;;0.95;0.70;;;20.90;70.00;;;;;;4970894;28;20465;-64
2024/02/09 04:50:28;;;;;;;0.80;0.60;;;20.60;69.20;;;;;;4964111;28;20193;-63
2024/02/09 04:52:55;;;;;;;0.88;0.65;;;21.60;71.10;;;;;;4945081;28;20209;-63
2024/02/09 04:55:24;;;;;;;0.90;0.70;;;21.10;70.20;;;;;;4970521;28;20227;-64
2024/02/09 04:57:55;;;;;;;0.80;0.60;;;20.90;68.50;;;;;;4969508;28;20263;-64
2024/02/09 05:00:24;;;;;;;0.90;0.60;;;21.00;70.00;;;;;;4973398;28;20197;-63
2024/02/09 05:02:51;;;;;;;1.20;0.80;;;21.10;69.00;;;;;;4973384;28;20576;-64
2024/02/09 05:05:22;;;;;;;1.13;0.75;;;21.00;68.90;;;;;;4953968;28;20970;-62
2024/02/09 05:07:49;;;;;;;1.10;0.90;;;21.00;70.70;;;;;;4958794;28;20202;-63
2024/02/09 05:10:17;;;;;;;1.42;0.70;;;21.00;67.30;;;;;;4961799;28;20204;-64
2024/02/09 05:12:46;;;;;;;0.90;0.70;;;21.00;67.40;;;;;;4967418;28;20565;-63
2024/02/09 05:15:13;;;;;;;1.10;0.70;;;20.90;67.60;;;;;;4965410;28;21211;-64
2024/02/09 05:17:40;;;;;;;1.20;0.70;;;21.00;68.00;;;;;;4958446;28;20208;-64
2024/02/09 05:20:07;;;;;;;1.00;0.70;;;21.00;71.00;;;;;;4969708;28;20205;-66
2024/02/09 05:22:35;;;;;;;1.00;0.80;;;21.00;68.10;;;;;;4969552;28;20213;-64
2024/02/09 05:25:05;;;;;;;1.10;0.75;;;21.70;70.70;;;;;;4969693;28;20204;-64
2024/02/09 05:27:34;;;;;;;1.05;0.82;;;21.00;71.20;;;;;;4970254;28;20251;-62
2024/02/09 05:30:02;;;;;;;0.80;0.60;;;21.30;71.00;;;;;;4957924;28;20339;-63
2024/02/09 05:32:30;;;;;;;1.15;0.68;;;21.00;71.20;;;;;;4955349;28;20197;-64
2024/02/09 05:35:00;;;;;;;1.80;0.60;;;21.00;69.60;;;;;;4963767;28;20213;-64
2024/02/09 05:37:27;;;;;;;1.10;0.93;;;20.90;69.70;;;;;;4969788;28;20204;-62
2024/02/09 05:39:56;;;;;;;1.23;0.80;;;20.90;70.30;;;;;;4969518;28;20205;-64
2024/02/09 05:42:25;;;;;;;1.00;0.70;;;20.90;69.80;;;;;;4967267;28;20798;-63
2024/02/09 05:44:54;;;;;;;1.00;0.70;;;20.80;69.10;;;;;;4970340;28;20200;-64
2024/02/09 05:47:20;;;;;;;1.00;0.70;;;21.40;71.70;;;;;;4966404;28;20205;-63
2024/02/09 05:49:52;;;;;;;0.90;0.70;;;21.00;67.00;;;;;;4969210;28;20236;-64
2024/02/09 05:52:23;;;;;;;0.90;0.68;;;20.80;66.60;;;;;;4967863;28;20208;-65
2024/02/09 05:54:53;;;;;;;0.90;0.65;;;21.30;67.30;;;;;;4964408;28;20196;-64
2024/02/09 05:57:22;;;;;;;0.90;0.70;;;21.00;67.20;;;;;;4967444;28;20279;-64
2024/02/09 06:00:01;;;;;;;0.90;0.75;;;21.00;67.50;;;;;;4964081;28;20239;-64
2024/02/09 06:02:30;;;;;;;0.85;0.60;;;21.40;68.60;;;;;;4964633;28;20855;-63
2024/02/09 06:05:00;;;;;;;0.90;0.70;;;21.00;68.10;;;;;;4967497;28;20185;-63
2024/02/09 06:07:34;;;;;;;1.45;0.80;;;20.90;69.10;;;;;;4966089;28;20201;-65
2024/02/09 06:10:00;;;;;;;0.90;0.63;;;20.80;68.10;;;;;;4971357;28;20203;-64
2024/02/09 06:12:32;;;;;;;1.10;0.60;;;20.90;68.90;;;;;;4964858;28;20201;-63
2024/02/09 06:15:12;;;;;;;0.90;0.70;;;20.80;67.50;;;;;;4967108;28;20200;-64
2024/02/09 06:17:39;;;;;;;0.90;0.65;;;20.80;67.80;;;;;;4971455;28;20197;-64
2024/02/09 06:20:09;;;;;;;0.90;0.70;;;21.00;68.20;;;;;;4956757;28;20208;-62
2024/02/09 06:22:41;;;;;;;0.90;0.60;;;20.90;69.30;;;;;;4970598;28;20193;-65
2024/02/09 06:25:11;;;;;;;0.90;0.60;;;20.90;68.50;;;;;;4967176;28;20208;-64
2024/02/09 06:27:39;;;;;;;1.73;0.90;;;20.90;69.50;;;;;;4969281;28;20212;-63
2024/02/09 06:30:07;;;;;;;0.90;0.63;;;21.10;70.10;;;;;;4969462;28;20972;-64
2024/02/09 06:32:33;;;;;;;1.20;0.70;;;20.90;69.30;;;;;;4965742;28;20201;-64
2024/02/09 06:35:02;;;;;;;1.00;0.73;;;20.80;70.30;;;;;;4971692;28;20209;-63
2024/02/09 06:37:29;;;;;;;1.00;0.65;;;20.90;69.00;;;;;;4968685;28;20588;-64
2024/02/09 06:40:00;;;;;;;0.90;0.60;;;20.90;69.00;;;;;;4967434;28;20205;-63
2024/02/09 06:42:27;;;;;;;1.10;0.85;;;20.90;68.90;;;;;;4970826;28;20213;-64
2024/02/09 06:44:56;;;;;;;0.90;0.68;;;20.90;69.40;;;;;;4965811;28;20196;-62
2024/02/09 06:47:25;;;;;;;1.20;0.70;;;21.20;69.20;;;;;;4968176;28;20201;-64
2024/02/09 06:49:59;;;;;;;1.00;0.60;;;20.80;67.20;;;;;;4967647;28;20221;-63
2024/02/09 06:52:31;;;;;;;0.95;0.75;;;20.90;67.10;;;;;;4959738;28;20584;-63
2024/02/09 06:55:00;;;;;;;0.90;0.70;;;20.90;67.60;;;;;;4969613;28;20263;-66
2024/02/09 06:57:27;;;;;;;1.55;0.70;;;20.80;68.50;;;;;;4965189;28;20728;-65
2024/02/09 06:59:57;;;;;;;1.02;0.70;;;20.70;68.80;;;;;;4952156;28;20207;-66
2024/02/09 07:02:37;;;;;;;0.90;0.60;;;20.60;66.90;;;;;;4961559;28;22016;-65
2024/02/09 07:05:10;;;;;;;1.00;0.70;;;20.90;67.50;;;;;;4962651;28;20205;-66
2024/02/09 07:07:49;;;;;;;0.90;0.60;;;20.90;68.40;;;;;;4969841;28;20206;-65
2024/02/09 07:10:28;;;;;;;1.10;0.60;;;21.30;69.80;;;;;;4968095;28;21392;-66
2024/02/09 07:12:56;;;;;;;1.10;0.77;;;20.80;70.40;;;;;;4957347;28;20204;-65
2024/02/09 07:15:25;;;;;;;0.90;0.70;;;20.80;70.60;;;;;;4964301;28;20947;-65
2024/02/09 07:17:56;;;;;;;1.00;0.70;;;20.70;68.20;;;;;;4964090;28;20806;-65
2024/02/09 07:20:24;;;;;;;0.90;0.70;;;20.70;70.40;;;;;;4968340;28;20230;-65
2024/02/09 07:22:51;;;;;;;0.90;0.60;;;20.70;67.60;;;;;;4954824;28;20201;-68
2024/02/09 07:25:30;;;;;;;1.05;0.70;;;20.80;67.90;;;;;;4967845;28;20475;-67
2024/02/09 07:28:05;;;;;;;1.30;0.80;;;20.80;68.40;;;;;;4961850;28;20201;-65
2024/02/09 07:30:35;;;;;;;1.00;0.60;;;20.80;69.90;;;;;;4969853;28;20197;-65
2024/02/09 07:33:08;;;;;;;0.90;0.60;;;21.00;69.00;;;;;;4965669;28;20200;-66
2024/02/09 07:35:38;;;;;;;0.90;0.60;;;21.30;70.90;;;;;;4971419;28;20205;-65
2024/02/09 07:40:47;;;;;;;0.80;0.60;;;20.70;68.10;;;;;;4973273;28;20205;-66
2024/02/09 07:43:19;;;;;;;0.88;0.60;;;20.80;68.30;;;;;;4962380;28;20216;-66
2024/02/09 07:45:53;;;;;;;0.98;0.70;;;20.90;69.00;;;;;;4967875;28;20201;-66
2024/02/09 07:48:24;;;;;;;0.95;0.70;;;20.90;69.90;;;;;;4966333;28;20645;-66
2024/02/09 07:50:53;;;;;;;1.00;0.80;;;20.90;70.50;;;;;;4974120;28;20192;-66
2024/02/09 07:53:23;;;;;;;1.20;0.68;;;20.80;70.20;;;;;;4964855;28;20205;-66
2024/02/09 07:55:49;;;;;;;0.88;0.60;;;20.90;69.80;;;;;;4974138;28;20225;-65
2024/02/09 07:58:25;;;;;;;1.02;0.80;;;20.80;69.50;;;;;;4964488;28;20556;-65
2024/02/09 08:00:56;;;;;;;1.02;0.80;;;21.00;69.50;;;;;;4971685;28;20192;-66
2024/02/09 08:03:22;;;;;;;1.30;0.80;;;21.00;70.60;;;;;;4953765;28;20894;-66
2024/02/09 08:05:49;;;;;;;1.00;0.75;;;21.10;70.90;;;;;;4973373;28;20209;-65
2024/02/09 08:08:27;;;;;;;2.47;0.90;;;21.10;68.50;;;;;;4972710;28;20208;-66
2024/02/09 08:10:57;;;;;;;1.42;0.70;;;20.90;68.50;;;;;;4967888;28;20282;-65
2024/02/09 08:13:24;;;;;;;1.00;0.77;;;21.10;68.20;;;;;;4967256;28;20423;-66
2024/02/09 08:15:51;;;;;;;1.27;0.70;;;21.10;68.60;;;;;;4973422;28;20228;-66
2024/02/09 08:18:21;;;;;;;1.00;0.80;;;21.10;69.00;;;;;;4966500;28;20288;-66
2024/02/09 08:20:48;;;;;;;0.80;0.60;;;21.10;70.20;;;;;;4969863;28;20645;-66
2024/02/09 08:23:17;;;;;;;0.90;0.60;;;21.10;69.10;;;;;;4965496;28;20202;-65
2024/02/09 08:25:44;;;;;;;0.90;0.68;;;21.10;70.20;;;;;;4969163;28;20216;-66
2024/02/09 08:28:14;;;;;;;1.00;0.70;;;21.20;70.50;;;;;;4968375;28;20201;-67
2024/02/09 08:30:41;;;;;;;0.90;0.60;;;21.10;70.20;;;;;;4968211;28;20198;-65
2024/02/09 08:33:07;;;;;;;1.10;0.70;;;21.10;71.10;;;;;;4969073;28;20209;-66
2024/02/09 08:35:35;;;;;;;1.00;0.70;;;21.00;68.70;;;;;;4973724;28;20576;-66
2024/02/09 08:38:04;;;;;;;0.90;0.70;;;21.10;70.30;;;;;;4972330;28;20470;-66
2024/02/09 08:40:31;;;;;;;1.00;0.70;;;21.30;71.10;;;;;;4972629;28;20665;-66
2024/02/09 08:43:02;;;;;;;0.90;0.70;;;21.20;69.20;;;;;;4972546;28;20223;-66
2024/02/09 08:45:31;;;;;;;1.52;0.75;;;21.20;67.30;;;;;;4970669;28;20462;-66
2024/02/09 08:48:02;;;;;;;0.90;0.70;;;21.20;67.60;;;;;;4966356;28;20204;-66
2024/02/09 08:50:39;;;;;;;1.20;0.77;;;21.30;68.30;;;;;;4962747;28;21162;-65
2024/02/09 08:53:08;;;;;;;2.47;0.70;;;21.20;68.70;;;;;;4968438;28;20204;-66
2024/02/09 08:55:40;;;;;;;0.90;0.70;;;21.10;71.90;;;;;;4973912;28;20676;-66
2024/02/09 08:58:07;;;;;;;1.27;0.90;;;21.50;71.70;;;;;;4971800;28;20834;-60
2024/02/09 09:00:35;;;;;;;0.90;0.63;;;21.70;73.30;;;;;;4966631;28;20529;-67
2024/02/09 09:03:02;;;;;;;0.95;0.70;;;21.20;71.50;;;;;;4967376;28;20469;-70
2024/02/09 09:05:29;;;;;;;1.10;0.70;;;21.50;71.10;;;;;;4970083;28;20193;-67
2024/02/09 09:08:00;;;;;;;1.00;0.60;;;21.30;69.60;;;;;;4966718;28;20676;-64
2024/02/09 09:10:34;;;;;;;1.00;0.70;;;21.20;70.60;;;;;;4966771;28;20307;-67
2024/02/09 09:13:10;;;;;;;0.90;0.70;;;21.10;69.50;;;;;;4967273;28;20626;-65
2024/02/09 09:15:40;;;;;;;1.00;0.70;;;21.30;69.50;;;;;;4967090;28;20335;-65
2024/02/09 09:18:11;;;;;;;0.98;0.65;;;21.20;68.70;;;;;;4967067;28;20212;-68
2024/02/09 09:20:38;;;;;;;1.00;0.80;;;21.20;70.60;;;;;;4953303;28;20204;-66
2024/02/09 09:23:18;;;;;;;1.00;0.77;;;21.30;70.90;;;;;;4966631;28;21377;-67
2024/02/09 09:25:44;;;;;;;1.00;0.63;;;21.30;69.80;;;;;;4969383;28;21831;-65
2024/02/09 09:28:17;;;;;;;1.00;0.77;;;21.30;70.30;;;;;;4972441;28;20456;-66
2024/02/09 09:30:46;;;;;;;0.90;0.63;;;21.20;69.20;;;;;;4967858;28;20468;-68
2024/02/09 09:33:20;;;;;;;1.20;0.70;;;21.30;70.70;;;;;;4962868;28;20460;-66
2024/02/09 09:35:56;;;;;;;1.55;1.23;;;21.30;71.80;;;;;;4970586;28;20892;-67
2024/02/09 09:38:27;;;;;;;0.87;0.60;;;21.40;69.30;;;;;;4967707;28;20197;-66
2024/02/09 09:40:55;;;;;;;0.88;0.60;;;21.40;69.60;;;;;;4967973;28;20451;-67
2024/02/09 09:43:24;;;;;;;2.90;0.70;;;21.50;70.40;;;;;;4963256;28;20200;-68
2024/02/09 09:45:56;;;;;;;0.90;0.70;;;21.90;71.50;;;;;;4967102;28;20552;-65
2024/02/09 09:48:30;;;;;;;1.07;0.70;;;22.00;72.50;;;;;;4964207;28;20484;-70
2024/02/09 09:50:57;;;;;;;1.37;0.60;;;21.50;73.90;;;;;;4967437;28;20459;-72
2024/02/09 09:53:29;;;;;;;0.97;0.60;;;21.50;74.20;;;;;;4963412;28;20473;-69
2024/02/09 09:55:59;;;;;;;3.83;0.90;;;21.80;76.90;;;;;;4964884;28;20506;-70
2024/02/09 09:58:29;;;;;;;0.90;0.70;;;21.50;77.20;;;;;;4970736;28;20885;-66
2024/02/09 10:00:59;;;;;;;1.20;0.80;;;21.60;74.40;;;;;;4971631;28;20896;-68
2024/02/09 10:03:29;;;;;;;0.90;0.70;;;21.50;74.60;;;;;;4969142;28;20534;-65
2024/02/09 10:05:58;;;;;;;1.10;0.80;;;21.70;80.20;;;;;;4969998;28;20461;-68
2024/02/09 10:08:31;;;;;;;1.23;0.80;;;21.50;78.50;;;;;;4963458;28;21079;-66
2024/02/09 10:10:57;;;;;;;1.37;0.70;;;21.60;74.10;;;;;;4971567;28;20484;-68
2024/02/09 10:13:25;;;;;;;0.90;0.60;;;21.60;74.20;;;;;;4971467;28;22294;-71
2024/02/09 10:15:52;;;;;;;1.07;0.70;;;21.60;72.20;;;;;;4969574;28;20464;-65
2024/02/09 10:18:20;;;;;;;1.00;0.60;;;21.70;70.30;;;;;;4965671;28;20491;-66
2024/02/09 10:20:48;;;;;;;1.10;0.60;;;21.70;70.80;;;;;;4960393;28;20464;-65
2024/02/09 10:23:16;;;;;;;1.10;0.70;;;21.60;73.10;;;;;;4971209;28;20451;-71
2024/02/09 10:25:47;;;;;;;1.67;0.73;;;21.90;71.10;;;;;;4968550;28;20459;-69
2024/02/09 10:28:14;;;;;;;1.40;0.67;;;21.80;74.00;;;;;;4969886;28;20852;-66
2024/02/09 10:30:43;;;;;;;1.40;0.90;;;21.70;71.70;;;;;;4961555;28;20510;-65
2024/02/09 10:33:16;;;;;;;1.27;0.80;;;21.60;71.20;;;;;;4951134;28;21023;-68
2024/02/09 10:35:44;;;;;;;2.20;0.73;;;21.80;71.40;;;;;;4953362;28;20460;-65
2024/02/09 10:38:13;;;;;;;0.90;0.70;;;21.90;72.60;;;;;;4954367;28;20479;-67
2024/02/09 10:40:39;;;;;;;1.17;0.70;;;21.90;71.30;;;;;;4959018;28;20465;-66
2024/02/09 10:43:12;;;;;;;2.27;0.90;;;22.10;71.00;;;;;;4969031;28;20468;-65
2024/02/09 10:45:42;;;;;;;1.20;0.60;;;21.70;69.40;;;;;;4970895;28;20456;-67
2024/02/09 10:48:12;;;;;;;1.10;0.70;;;21.70;69.40;;;;;;4963294;28;20462;-67
2024/02/09 10:50:40;;;;;;;0.90;0.60;;;21.90;69.60;;;;;;4967037;28;20462;-64
2024/02/09 10:53:12;;;;;;;1.00;0.70;;;21.90;69.70;;;;;;4965805;28;20456;-66
2024/02/09 10:55:46;;;;;;;1.03;0.70;;;22.00;70.30;;;;;;4965269;28;20460;-68
2024/02/09 10:58:18;;;;;;;0.90;0.60;;;21.90;71.00;;;;;;4969947;28;20483;-67
2024/02/09 11:00:45;;;;;;;1.23;0.80;;;21.90;70.00;;;;;;4968846;28;20554;-66
2024/02/09 11:03:16;;;;;;;1.10;0.77;;;21.90;70.00;;;;;;4963388;28;20472;-65
2024/02/09 11:05:43;;;;;;;1.50;0.90;;;22.00;70.10;;;;;;4965677;28;20487;-66
2024/02/09 11:08:10;;;;;;;1.10;0.80;;;21.80;69.60;;;;;;4968363;28;20461;-66
2024/02/09 11:10:37;;;;;;;1.40;0.70;;;22.40;70.40;;;;;;4970696;28;20465;-65
2024/02/09 11:13:04;;;;;;;1.30;0.60;;;22.10;70.00;;;;;;4971123;28;20754;-70
2024/02/09 11:15:32;;;;;;;0.90;0.70;;;22.00;69.90;;;;;;4967897;28;20460;-67
2024/02/09 11:18:03;;;;;;;1.20;0.80;;;21.90;70.20;;;;;;4969635;28;21015;-66
2024/02/09 11:20:31;;;;;;;1.40;0.90;;;22.30;71.20;;;;;;4963572;28;20467;-66
2024/02/09 11:23:00;;;;;;;0.80;0.60;;;22.00;70.60;;;;;;4968130;28;20538;-66
2024/02/09 11:25:28;;;;;;;1.00;0.70;;;22.00;70.70;;;;;;4970461;28;22215;-69
2024/02/09 11:27:56;;;;;;;1.00;0.70;;;22.40;70.90;;;;;;4971401;28;20463;-65
2024/02/09 11:30:28;;;;;;;1.10;0.70;;;22.50;70.90;;;;;;4970988;28;20455;-68
2024/02/09 11:33:03;;;;;;;0.90;0.60;;;22.00;71.40;;;;;;4966236;28;20594;-67
2024/02/09 11:35:35;;;;;;;2.27;0.80;;;22.20;71.40;;;;;;4971111;28;20570;-66
2024/02/09 11:38:02;;;;;;;0.90;0.70;;;22.10;74.10;;;;;;4963251;28;20480;-68
2024/02/09 11:40:32;;;;;;;1.07;0.70;;;22.10;70.40;;;;;;4964940;28;20906;-65
2024/02/09 11:43:03;;;;;;;1.10;0.80;;;22.10;70.70;;;;;;4970094;28;20460;-70
2024/02/09 11:45:30;;;;;;;1.20;0.70;;;22.20;71.80;;;;;;4969431;28;20472;-69
2024/02/09 11:48:03;;;;;;;1.20;0.80;;;22.20;73.70;;;;;;4964707;28;20471;-67
2024/02/09 11:50:31;;;;;;;1.00;0.70;;;22.20;71.90;;;;;;4971244;28;20474;-66
2024/02/09 11:53:04;;;;;;;0.90;0.60;;;22.20;73.50;;;;;;4971109;28;21542;-68
2024/02/09 11:55:31;;;;;;;0.83;0.60;;;22.20;73.30;;;;;;4972287;28;20459;-67
2024/02/09 11:57:59;;;;;;;0.90;0.60;;;22.20;73.60;;;;;;4970568;28;20621;-66
2024/02/09 12:00:26;;;;;;;1.00;0.70;;;22.30;71.70;;;;;;4973811;28;20467;-68
2024/02/09 12:02:58;;;;;;;1.47;0.70;;;22.20;71.00;;;;;;4966758;28;20487;-65
2024/02/09 12:05:36;;;;;;;0.90;0.70;;;22.80;73.10;;;;;;4969162;28;20499;-67
2024/02/09 12:08:03;;;;;;;1.50;0.73;;;21.90;71.50;;;;;;4974249;28;20601;-67
2024/02/09 12:10:30;;;;;;;0.90;0.60;;;22.30;72.80;;;;;;4975281;28;20437;-69
2024/02/09 12:13:12;;;;;;;0.97;0.77;;;22.60;71.00;;;;;;4971377;28;20464;-67
2024/02/09 12:15:42;;;;;;;0.90;0.60;;;22.30;71.40;;;;;;4964431;28;20460;-66
2024/02/09 12:18:13;;;;;;;1.00;0.80;;;22.70;71.80;;;;;;4972397;28;20476;-67
2024/02/09 12:20:43;;;;;;;1.17;1.07;;;22.20;71.60;;;;;;4967591;28;20456;-67
2024/02/09 12:23:10;;;;;;;0.90;0.60;;;22.70;72.20;;;;;;4968466;28;20471;-64
2024/02/09 12:25:41;;;;;;;0.90;0.70;;;22.10;70.20;;;;;;4972287;28;20460;-65
2024/02/09 12:28:12;;;;;;;0.90;0.70;;;22.10;70.40;;;;;;4973058;28;20464;-65
2024/02/09 12:30:42;;;;;;;0.90;0.70;;;22.40;73.80;;;;;;4968900;28;20967;-68
2024/02/09 12:33:12;;;;;;;0.90;0.60;;;22.30;70.60;;;;;;4969775;28;20460;-71
2024/02/09 12:35:43;;;;;;;1.10;0.70;;;22.20;71.30;;;;;;4965865;28;20465;-69
2024/02/09 12:38:15;;;;;;;0.90;0.70;;;22.30;71.20;;;;;;4972032;28;20483;-65
2024/02/09 12:40:43;;;;;;;0.90;0.60;;;22.80;71.80;;;;;;4971835;28;20567;-66
2024/02/09 12:43:11;;;;;;;0.90;0.60;;;22.20;72.10;;;;;;4970172;28;20551;-65
2024/02/09 12:45:38;;;;;;;0.90;0.60;;;22.40;70.50;;;;;;4973342;28;20550;-67
2024/02/09 12:48:06;;;;;;;1.23;1.00;;;22.40;73.20;;;;;;4969315;28;20468;-68
2024/02/09 12:50:38;;;;;;;1.60;1.50;;;22.40;70.00;;;;;;4975192;28;20459;-66
2024/02/09 12:53:08;;;;;;;5.40;1.53;;;22.00;70.60;;;;;;4970477;28;20472;-68
2024/02/09 12:55:39;;;;;;;1.57;1.13;;;22.50;68.90;;;;;;4972691;28;20448;-66
2024/02/09 12:58:10;;;;;;;2.70;1.30;;;22.00;68.20;;;;;;4973472;28;21046;-69
2024/02/09 13:00:44;;;;;;;2.87;1.60;;;22.50;69.40;;;;;;4971465;28;20455;-70
2024/02/09 13:03:13;;;;;;;1.57;1.47;;;21.90;67.70;;;;;;4962875;28;20467;-68
2024/02/09 13:05:40;;;;;;;2.40;1.67;;;22.00;68.00;;;;;;4964908;28;20468;-69
2024/02/09 13:08:15;;;;;;;3.03;2.07;;;21.80;68.30;;;;;;4970889;28;20912;-68
2024/02/09 13:10:42;;;;;;;1.53;1.33;;;21.70;68.10;;;;;;4971001;28;20621;-66
2024/02/09 13:13:09;;;;;;;4.80;1.93;;;22.00;69.30;;;;;;4965375;28;20468;-67
2024/02/09 13:15:38;;;;;;;3.40;1.60;;;21.90;69.10;;;;;;4970450;28;20468;-65
2024/02/09 13:18:08;;;;;;;1.70;1.43;;;21.80;69.40;;;;;;4972607;28;20483;-66
2024/02/09 13:20:37;;;;;;;4.27;2.13;;;21.80;68.90;;;;;;4971463;28;20479;-66
2024/02/09 13:23:07;;;;;;;2.93;1.37;;;21.80;67.10;;;;;;4971063;28;23976;-66
2024/02/09 13:25:41;;;;;;;2.53;1.60;;;21.70;67.20;;;;;;4966951;28;20464;-66
2024/02/09 13:28:12;;;;;;;2.67;1.50;;;22.00;68.20;;;;;;4969024;28;21242;-67
2024/02/09 13:30:39;;;;;;;2.93;1.20;;;21.80;68.00;;;;;;4963562;28;20910;-64
2024/02/09 13:33:07;;;;;;;2.47;1.40;;;21.80;66.80;;;;;;4966005;28;20467;-68
2024/02/09 13:35:36;;;;;;;1.87;1.33;;;22.00;67.20;;;;;;4971377;28;20464;-68
2024/02/09 13:38:03;;;;;;;1.80;1.30;;;21.80;66.80;;;;;;4972570;28;20575;-65
2024/02/09 13:40:30;;;;;;;2.50;1.37;;;22.00;67.20;;;;;;4967705;28;20468;-64
2024/02/09 13:43:10;;;;;;;1.70;1.20;;;22.20;67.70;;;;;;4966126;28;20487;-68
2024/02/09 13:45:39;;;;;;;1.63;1.10;;;22.00;68.50;;;;;;4966266;28;20470;-66
2024/02/09 13:48:09;;;;;;;2.30;1.17;;;21.80;67.60;;;;;;4966539;28;20468;-68
2024/02/09 13:50:39;;;;;;;2.37;1.30;;;22.20;68.50;;;;;;4969958;28;20464;-70
2024/02/09 13:53:06;;;;;;;2.33;1.30;;;22.00;69.00;;;;;;4973158;28;20464;-69
2024/02/09 13:55:45;;;;;;;2.40;1.43;;;22.30;71.90;;;;;;4969285;28;20464;-68
2024/02/09 13:58:14;;;;;;;1.87;1.33;;;22.20;71.80;;;;;;4967410;28;20946;-68
2024/02/09 14:00:42;;;;;;;1.50;1.10;;;22.20;71.40;;;;;;4966089;28;20551;-66
2024/02/09 14:03:11;;;;;;;2.43;1.70;;;22.20;72.00;;;;;;4965444;28;20464;-66
2024/02/09 14:05:41;;;;;;;1.40;1.00;;;22.20;72.10;;;;;;4971890;28;20496;-66
2024/02/09 14:08:08;;;;;;;3.03;1.37;;;22.30;72.10;;;;;;4971520;28;21094;-70
2024/02/09 14:10:39;;;;;;;1.90;1.20;;;22.40;70.90;;;;;;4972730;28;21043;-67
2024/02/09 14:13:08;;;;;;;1.20;0.90;;;22.20;74.80;;;;;;4968737;28;20472;-66
2024/02/09 14:15:38;;;;;;;1.20;0.90;;;22.30;72.80;;;;;;4969110;28;21101;-70
2024/02/09 14:18:05;;;;;;;1.80;1.13;;;22.20;73.60;;;;;;4971558;28;20479;-66
2024/02/09 14:20:46;;;;;;;;;;;;;;;;;;;;;
2024/02/09 14:23:13;;;;;;;1.37;1.20;;;22.30;70.80;;;;;;4969995;28;20467;-69
2024/02/09 14:25:44;;;;;;;1.47;0.90;;;22.40;73.30;;;;;;4966984;28;20459;-69
2024/02/09 14:28:12;;;;;;;2.00;1.30;;;22.40;73.10;;;;;;4960967;28;20471;-69
2024/02/09 14:30:42;;;;;;;1.53;0.90;;;22.50;73.40;;;;;;4970127;28;20460;-70
2024/02/09 14:33:08;;;;;;;3.13;1.37;;;22.30;73.10;;;;;;4972179;28;20547;-68
2024/02/09 14:35:35;;;;;;;2.83;1.03;;;22.30;75.60;;;;;;4971675;28;20467;-70
2024/02/09 14:38:02;;;;;;;1.10;0.83;;;22.20;72.50;;;;;;4969729;28;20476;-67
2024/02/09 14:40:31;;;;;;;2.03;1.47;;;21.80;73.60;;;;;;4969917;28;21191;-66
2024/02/09 14:43:00;;;;;;;2.57;1.20;;;22.30;72.50;;;;;;4973024;28;21092;-66
2024/02/09 14:45:26;;;;;;;1.33;1.07;;;22.30;75.10;;;;;;4963926;28;21074;-66
2024/02/09 14:47:55;;;;;;;1.23;0.80;;;22.70;73.70;;;;;;4959598;28;20469;-68
2024/02/09 14:50:28;;;;;;;1.23;1.00;;;22.30;73.10;;;;;;4956973;28;20500;-71
2024/02/09 14:52:59;;;;;;;1.50;0.83;;;22.30;72.40;;;;;;4971410;28;20456;-70